sensor_id;sensor_type;location;lat;lon;timestamp;temperature;humidity
5631;DHT22;2837;50.990;7.124;2024-03-29T00:01:10;11.00;99.90
5631;DHT22;2837;50.990;7.124;2024-03-29T00:03:35;11.10;99.90
5631;DHT22;2837;50.990;7.124;2024-03-29T00:06:01;11.10;99.90
5631;DHT22;2837;50.990;7.124;2024-03-29T00:08:26;11.00;99.90
5631;DHT22;2837;50.990;7.124;2024-03-29T00:10:52;10.90;99.90
5631;DHT22;2837;50.990;7.124;2024-03-29T00:13:17;10.90;99.90
5631;DHT22;2837;50.990;7.124;2024-03-29T00:15:45;14.10;99.90
5631;DHT22;2837;50.990;7.124;2024-03-29T00:18:11;10.90;99.90
5631;DHT22;2837;50.990;7.124;2024-03-29T00:20:37;11.00;99.90
5631;DHT22;2837;50.990;7.124;2024-03-29T00:23:02;10.90;99.90
5631;DHT22;2837;50.990;7.124;2024-03-29T00:25:28;11.00;99.90
5631;DHT22;2837;50.990;7.124;2024-03-29T00:27:53;13.40;99.90
5631;DHT22;2837;50.990;7.124;2024-03-29T00:30:19;10.90;99.90
5631;DHT22;2837;50.990;7.124;2024-03-29T00:32:44;10.80;99.90
5631;DHT22;2837;50.990;7.124;2024-03-29T00:35:10;11.00;99.90
5631;DHT22;2837;50.990;7.124;2024-03-29T00:37:35;11.00;99.90
5631;DHT22;2837;50.990;7.124;2024-03-29T00:40:01;14.60;99.90
5631;DHT22;2837;50.990;7.124;2024-03-29T00:42:27;11.00;99.90
5631;DHT22;2837;50.990;7.124;2024-03-29T00:44:52;11.10;99.90
5631;DHT22;2837;50.990;7.124;2024-03-29T00:47:18;11.10;99.90
5631;DHT22;2837;50.990;7.124;2024-03-29T00:49:43;14.90;99.90
5631;DHT22;2837;50.990;7.124;2024-03-29T00:52:09;10.90;99.90
5631;DHT22;2837;50.990;7.124;2024-03-29T00:54:34;11.00;99.90
5631;DHT22;2837;50.990;7.124;2024-03-29T00:59:26;10.90;99.90
5631;DHT22;2837;50.990;7.124;2024-03-29T01:01:51;11.00;99.90
5631;DHT22;2837;50.990;7.124;2024-03-29T01:04:17;11.00;99.90
5631;DHT22;2837;50.990;7.124;2024-03-29T01:06:43;11.10;99.90
5631;DHT22;2837;50.990;7.124;2024-03-29T01:09:09;11.10;99.90
5631;DHT22;2837;50.990;7.124;2024-03-29T01:11:38;11.20;99.90
5631;DHT22;2837;50.990;7.124;2024-03-29T01:14:05;11.20;99.90
5631;DHT22;2837;50.990;7.124;2024-03-29T01:16:31;11.30;99.90
5631;DHT22;2837;50.990;7.124;2024-03-29T01:18:57;11.40;99.90
5631;DHT22;2837;50.990;7.124;2024-03-29T01:21:23;11.50;99.90
5631;DHT22;2837;50.990;7.124;2024-03-29T01:23:49;11.40;99.90
5631;DHT22;2837;50.990;7.124;2024-03-29T01:26:14;11.40;99.90
5631;DHT22;2837;50.990;7.124;2024-03-29T01:28:42;11.40;99.90
5631;DHT22;2837;50.990;7.124;2024-03-29T01:31:08;11.40;99.90
5631;DHT22;2837;50.990;7.124;2024-03-29T01:33:34;11.40;99.90
5631;DHT22;2837;50.990;7.124;2024-03-29T01:36:03;11.30;99.90
5631;DHT22;2837;50.990;7.124;2024-03-29T01:38:29;11.30;99.90
5631;DHT22;2837;50.990;7.124;2024-03-29T01:40:55;11.30;99.90
5631;DHT22;2837;50.990;7.124;2024-03-29T01:43:20;11.20;99.90
5631;DHT22;2837;50.990;7.124;2024-03-29T01:45:48;11.30;99.90
5631;DHT22;2837;50.990;7.124;2024-03-29T01:48:15;11.20;99.90
5631;DHT22;2837;50.990;7.124;2024-03-29T01:50:41;11.20;99.90
5631;DHT22;2837;50.990;7.124;2024-03-29T01:53:08;11.20;99.90
5631;DHT22;2837;50.990;7.124;2024-03-29T01:55:35;11.20;99.90
5631;DHT22;2837;50.990;7.124;2024-03-29T01:58:01;11.10;99.90
5631;DHT22;2837;50.990;7.124;2024-03-29T02:00:27;11.10;99.90
5631;DHT22;2837;50.990;7.124;2024-03-29T02:02:54;13.70;99.90
5631;DHT22;2837;50.990;7.124;2024-03-29T02:05:20;11.40;99.90
5631;DHT22;2837;50.990;7.124;2024-03-29T02:07:46;11.40;99.90
5631;DHT22;2837;50.990;7.124;2024-03-29T02:10:14;11.50;99.90
5631;DHT22;2837;50.990;7.124;2024-03-29T02:12:40;11.50;99.90
5631;DHT22;2837;50.990;7.124;2024-03-29T02:15:05;11.40;99.90
5631;DHT22;2837;50.990;7.124;2024-03-29T02:17:34;11.40;99.90
5631;DHT22;2837;50.990;7.124;2024-03-29T02:19:59;11.50;99.90
5631;DHT22;2837;50.990;7.124;2024-03-29T02:22:27;11.70;99.90
5631;DHT22;2837;50.990;7.124;2024-03-29T02:24:54;11.70;99.90
5631;DHT22;2837;50.990;7.124;2024-03-29T02:27:21;11.60;99.90
5631;DHT22;2837;50.990;7.124;2024-03-29T02:29:48;11.60;99.90
5631;DHT22;2837;50.990;7.124;2024-03-29T02:32:13;11.50;99.90
5631;DHT22;2837;50.990;7.124;2024-03-29T02:34:39;11.60;99.90
5631;DHT22;2837;50.990;7.124;2024-03-29T02:37:05;11.70;99.90
5631;DHT22;2837;50.990;7.124;2024-03-29T02:39:31;11.80;99.90
5631;DHT22;2837;50.990;7.124;2024-03-29T02:41:57;12.70;99.90
5631;DHT22;2837;50.990;7.124;2024-03-29T02:44:22;11.90;99.90
5631;DHT22;2837;50.990;7.124;2024-03-29T02:46:48;11.90;99.90
5631;DHT22;2837;50.990;7.124;2024-03-29T02:49:13;11.90;99.90
5631;DHT22;2837;50.990;7.124;2024-03-29T02:51:39;11.70;99.90
5631;DHT22;2837;50.990;7.124;2024-03-29T02:54:04;11.70;99.90
5631;DHT22;2837;50.990;7.124;2024-03-29T02:56:30;11.70;99.90
5631;DHT22;2837;50.990;7.124;2024-03-29T02:58:56;11.70;99.90
5631;DHT22;2837;50.990;7.124;2024-03-29T03:01:21;11.60;99.90
5631;DHT22;2837;50.990;7.124;2024-03-29T03:03:47;11.50;99.90
5631;DHT22;2837;50.990;7.124;2024-03-29T03:06:12;14.30;99.90
5631;DHT22;2837;50.990;7.124;2024-03-29T03:08:38;11.40;99.90
5631;DHT22;2837;50.990;7.124;2024-03-29T03:11:22;11.40;99.90
5631;DHT22;2837;50.990;7.124;2024-03-29T03:13:47;13.40;99.90
5631;DHT22;2837;50.990;7.124;2024-03-29T03:16:13;11.50;99.90
5631;DHT22;2837;50.990;7.124;2024-03-29T03:18:39;11.40;99.90
5631;DHT22;2837;50.990;7.124;2024-03-29T03:21:05;11.40;99.90
5631;DHT22;2837;50.990;7.124;2024-03-29T03:23:31;11.30;99.90
5631;DHT22;2837;50.990;7.124;2024-03-29T03:25:58;11.30;99.90
5631;DHT22;2837;50.990;7.124;2024-03-29T03:28:24;11.30;99.90
5631;DHT22;2837;50.990;7.124;2024-03-29T03:30:53;11.30;99.90
5631;DHT22;2837;50.990;7.124;2024-03-29T03:33:19;11.20;99.90
5631;DHT22;2837;50.990;7.124;2024-03-29T03:35:45;11.20;99.90
5631;DHT22;2837;50.990;7.124;2024-03-29T03:38:11;11.00;99.90
5631;DHT22;2837;50.990;7.124;2024-03-29T03:40:37;11.10;99.90
5631;DHT22;2837;50.990;7.124;2024-03-29T03:43:03;11.20;99.90
5631;DHT22;2837;50.990;7.124;2024-03-29T03:45:33;11.40;99.90
5631;DHT22;2837;50.990;7.124;2024-03-29T03:47:58;11.30;99.90
5631;DHT22;2837;50.990;7.124;2024-03-29T03:50:24;11.40;99.90
5631;DHT22;2837;50.990;7.124;2024-03-29T03:52:49;11.20;99.90
5631;DHT22;2837;50.990;7.124;2024-03-29T03:55:15;11.30;99.90
5631;DHT22;2837;50.990;7.124;2024-03-29T03:57:40;11.30;99.90
5631;DHT22;2837;50.990;7.124;2024-03-29T04:00:06;11.70;99.90
5631;DHT22;2837;50.990;7.124;2024-03-29T04:02:32;11.30;99.90
5631;DHT22;2837;50.990;7.124;2024-03-29T04:04:58;11.30;99.90
5631;DHT22;2837;50.990;7.124;2024-03-29T04:07:23;11.30;99.90
5631;DHT22;2837;50.990;7.124;2024-03-29T04:09:52;11.30;99.90
5631;DHT22;2837;50.990;7.124;2024-03-29T04:12:18;11.30;99.90
5631;DHT22;2837;50.990;7.124;2024-03-29T04:14:44;11.30;99.90
5631;DHT22;2837;50.990;7.124;2024-03-29T04:17:09;11.20;99.90
5631;DHT22;2837;50.990;7.124;2024-03-29T04:19:35;11.20;99.90
5631;DHT22;2837;50.990;7.124;2024-03-29T04:22:01;11.30;99.90
5631;DHT22;2837;50.990;7.124;2024-03-29T04:24:28;11.30;99.90
5631;DHT22;2837;50.990;7.124;2024-03-29T04:26:53;11.20;99.90
5631;DHT22;2837;50.990;7.124;2024-03-29T04:29:19;11.20;99.90
5631;DHT22;2837;50.990;7.124;2024-03-29T04:31:45;11.20;99.90
5631;DHT22;2837;50.990;7.124;2024-03-29T04:34:11;11.20;99.90
5631;DHT22;2837;50.990;7.124;2024-03-29T04:36:37;11.10;99.90
5631;DHT22;2837;50.990;7.124;2024-03-29T04:39:02;11.20;99.90
5631;DHT22;2837;50.990;7.124;2024-03-29T04:41:28;11.10;99.90
5631;DHT22;2837;50.990;7.124;2024-03-29T04:43:54;11.10;99.90
5631;DHT22;2837;50.990;7.124;2024-03-29T04:46:19;11.20;99.90
5631;DHT22;2837;50.990;7.124;2024-03-29T04:48:45;11.30;99.90
5631;DHT22;2837;50.990;7.124;2024-03-29T04:51:11;11.30;99.90
5631;DHT22;2837;50.990;7.124;2024-03-29T04:53:38;11.30;99.90
5631;DHT22;2837;50.990;7.124;2024-03-29T04:56:04;11.20;99.90
5631;DHT22;2837;50.990;7.124;2024-03-29T04:58:30;11.20;99.90
5631;DHT22;2837;50.990;7.124;2024-03-29T05:00:56;11.10;99.90
5631;DHT22;2837;50.990;7.124;2024-03-29T05:03:22;11.10;99.90
5631;DHT22;2837;50.990;7.124;2024-03-29T05:05:52;11.10;99.90
5631;DHT22;2837;50.990;7.124;2024-03-29T05:08:19;11.10;99.90
5631;DHT22;2837;50.990;7.124;2024-03-29T05:10:46;11.10;99.90
5631;DHT22;2837;50.990;7.124;2024-03-29T05:13:11;11.10;99.90
5631;DHT22;2837;50.990;7.124;2024-03-29T05:15:37;13.30;99.90
5631;DHT22;2837;50.990;7.124;2024-03-29T05:18:03;11.20;99.90
5631;DHT22;2837;50.990;7.124;2024-03-29T05:20:32;11.10;99.90
5631;DHT22;2837;50.990;7.124;2024-03-29T05:22:58;11.10;99.90
5631;DHT22;2837;50.990;7.124;2024-03-29T05:25:24;11.10;99.90
5631;DHT22;2837;50.990;7.124;2024-03-29T05:27:50;12.80;99.90
5631;DHT22;2837;50.990;7.124;2024-03-29T05:30:15;11.20;99.90
5631;DHT22;2837;50.990;7.124;2024-03-29T05:32:41;11.20;99.90
5631;DHT22;2837;50.990;7.124;2024-03-29T05:35:07;11.10;99.90
5631;DHT22;2837;50.990;7.124;2024-03-29T05:37:34;11.20;99.90
5631;DHT22;2837;50.990;7.124;2024-03-29T05:40:00;11.10;99.90
5631;DHT22;2837;50.990;7.124;2024-03-29T05:42:26;11.00;99.90
5631;DHT22;2837;50.990;7.124;2024-03-29T05:44:52;11.00;99.90
5631;DHT22;2837;50.990;7.124;2024-03-29T05:47:17;11.10;99.90
5631;DHT22;2837;50.990;7.124;2024-03-29T05:49:43;11.10;99.90
5631;DHT22;2837;50.990;7.124;2024-03-29T05:52:09;11.20;99.90
5631;DHT22;2837;50.990;7.124;2024-03-29T05:54:34;11.20;99.90
5631;DHT22;2837;50.990;7.124;2024-03-29T05:57:00;11.30;99.90
5631;DHT22;2837;50.990;7.124;2024-03-29T05:59:25;11.40;99.90
5631;DHT22;2837;50.990;7.124;2024-03-29T06:01:51;11.30;99.90
5631;DHT22;2837;50.990;7.124;2024-03-29T06:04:17;11.40;99.90
5631;DHT22;2837;50.990;7.124;2024-03-29T06:06:45;11.40;99.90
5631;DHT22;2837;50.990;7.124;2024-03-29T06:09:10;13.50;99.90
5631;DHT22;2837;50.990;7.124;2024-03-29T06:11:36;11.40;99.90
5631;DHT22;2837;50.990;7.124;2024-03-29T06:14:02;11.50;99.90
5631;DHT22;2837;50.990;7.124;2024-03-29T06:16:33;11.60;99.90
5631;DHT22;2837;50.990;7.124;2024-03-29T06:19:17;11.50;99.90
5631;DHT22;2837;50.990;7.124;2024-03-29T06:21:43;11.40;99.90
5631;DHT22;2837;50.990;7.124;2024-03-29T06:24:10;11.40;99.90
5631;DHT22;2837;50.990;7.124;2024-03-29T06:26:40;11.50;99.90
5631;DHT22;2837;50.990;7.124;2024-03-29T06:29:05;14.30;99.90
5631;DHT22;2837;50.990;7.124;2024-03-29T06:31:31;11.50;99.90
5631;DHT22;2837;50.990;7.124;2024-03-29T06:34:00;11.50;99.90
5631;DHT22;2837;50.990;7.124;2024-03-29T06:36:26;11.60;99.90
5631;DHT22;2837;50.990;7.124;2024-03-29T06:38:53;11.60;99.90
5631;DHT22;2837;50.990;7.124;2024-03-29T06:41:18;11.60;99.90
5631;DHT22;2837;50.990;7.124;2024-03-29T06:43:44;11.60;99.90
5631;DHT22;2837;50.990;7.124;2024-03-29T06:46:10;11.50;99.90
5631;DHT22;2837;50.990;7.124;2024-03-29T06:48:36;11.50;99.90
5631;DHT22;2837;50.990;7.124;2024-03-29T06:51:02;11.50;99.90
5631;DHT22;2837;50.990;7.124;2024-03-29T06:53:28;11.60;99.90
5631;DHT22;2837;50.990;7.124;2024-03-29T06:55:55;11.80;99.90
5631;DHT22;2837;50.990;7.124;2024-03-29T06:58:22;11.90;99.90
5631;DHT22;2837;50.990;7.124;2024-03-29T07:00:47;12.40;99.90
5631;DHT22;2837;50.990;7.124;2024-03-29T07:03:15;11.90;99.90
5631;DHT22;2837;50.990;7.124;2024-03-29T07:05:40;12.00;99.90
5631;DHT22;2837;50.990;7.124;2024-03-29T07:08:06;12.00;99.90
5631;DHT22;2837;50.990;7.124;2024-03-29T07:10:32;12.10;99.90
5631;DHT22;2837;50.990;7.124;2024-03-29T07:12:58;12.20;99.90
5631;DHT22;2837;50.990;7.124;2024-03-29T07:15:23;12.20;99.90
5631;DHT22;2837;50.990;7.124;2024-03-29T07:17:49;12.10;99.90
5631;DHT22;2837;50.990;7.124;2024-03-29T07:20:18;12.20;99.90
5631;DHT22;2837;50.990;7.124;2024-03-29T07:22:43;12.40;99.90
5631;DHT22;2837;50.990;7.124;2024-03-29T07:25:10;12.40;99.90
5631;DHT22;2837;50.990;7.124;2024-03-29T07:27:36;12.30;99.90
5631;DHT22;2837;50.990;7.124;2024-03-29T07:30:02;12.30;99.90
5631;DHT22;2837;50.990;7.124;2024-03-29T07:32:30;12.20;99.90
5631;DHT22;2837;50.990;7.124;2024-03-29T07:34:55;12.20;99.90
5631;DHT22;2837;50.990;7.124;2024-03-29T07:37:23;12.20;99.90
5631;DHT22;2837;50.990;7.124;2024-03-29T07:39:49;12.20;99.90
5631;DHT22;2837;50.990;7.124;2024-03-29T07:42:15;12.40;99.90
5631;DHT22;2837;50.990;7.124;2024-03-29T07:44:41;12.40;99.90
5631;DHT22;2837;50.990;7.124;2024-03-29T07:47:07;12.40;99.90
5631;DHT22;2837;50.990;7.124;2024-03-29T07:49:33;12.50;99.90
5631;DHT22;2837;50.990;7.124;2024-03-29T07:51:58;12.50;99.90
5631;DHT22;2837;50.990;7.124;2024-03-29T07:54:25;12.60;99.90
5631;DHT22;2837;50.990;7.124;2024-03-29T07:56:50;12.50;99.90
5631;DHT22;2837;50.990;7.124;2024-03-29T07:59:16;12.60;99.90
5631;DHT22;2837;50.990;7.124;2024-03-29T08:01:44;12.70;99.90
5631;DHT22;2837;50.990;7.124;2024-03-29T08:04:10;12.70;99.90
5631;DHT22;2837;50.990;7.124;2024-03-29T08:06:35;12.70;99.90
5631;DHT22;2837;50.990;7.124;2024-03-29T08:09:01;12.70;99.90
5631;DHT22;2837;50.990;7.124;2024-03-29T08:11:27;12.70;99.90
5631;DHT22;2837;50.990;7.124;2024-03-29T08:13:53;12.70;99.90
5631;DHT22;2837;50.990;7.124;2024-03-29T08:16:18;12.70;99.90
5631;DHT22;2837;50.990;7.124;2024-03-29T08:18:46;12.70;99.90
5631;DHT22;2837;50.990;7.124;2024-03-29T08:21:12;12.80;99.90
5631;DHT22;2837;50.990;7.124;2024-03-29T08:23:41;12.90;99.90
5631;DHT22;2837;50.990;7.124;2024-03-29T08:26:10;13.00;99.90
5631;DHT22;2837;50.990;7.124;2024-03-29T08:28:35;13.10;99.90
5631;DHT22;2837;50.990;7.124;2024-03-29T08:31:05;13.10;99.90
5631;DHT22;2837;50.990;7.124;2024-03-29T08:33:31;13.20;99.90
5631;DHT22;2837;50.990;7.124;2024-03-29T08:35:57;13.20;99.90
5631;DHT22;2837;50.990;7.124;2024-03-29T08:38:23;13.30;99.90
5631;DHT22;2837;50.990;7.124;2024-03-29T08:40:49;13.20;99.90
5631;DHT22;2837;50.990;7.124;2024-03-29T08:43:15;13.30;99.90
5631;DHT22;2837;50.990;7.124;2024-03-29T08:45:43;13.20;99.90
5631;DHT22;2837;50.990;7.124;2024-03-29T08:48:09;13.30;99.90
5631;DHT22;2837;50.990;7.124;2024-03-29T08:50:36;13.30;99.90
5631;DHT22;2837;50.990;7.124;2024-03-29T08:53:05;13.20;99.90
5631;DHT22;2837;50.990;7.124;2024-03-29T08:55:31;13.30;99.90
5631;DHT22;2837;50.990;7.124;2024-03-29T08:57:58;14.60;99.90
5631;DHT22;2837;50.990;7.124;2024-03-29T09:00:25;13.20;99.90
5631;DHT22;2837;50.990;7.124;2024-03-29T09:02:50;15.30;99.90
5631;DHT22;2837;50.990;7.124;2024-03-29T09:05:16;14.40;99.90
5631;DHT22;2837;50.990;7.124;2024-03-29T09:07:42;13.20;99.90
5631;DHT22;2837;50.990;7.124;2024-03-29T09:10:07;13.20;99.90
5631;DHT22;2837;50.990;7.124;2024-03-29T09:12:33;13.20;99.90
5631;DHT22;2837;50.990;7.124;2024-03-29T09:14:59;13.30;99.90
5631;DHT22;2837;50.990;7.124;2024-03-29T09:17:24;13.20;99.90
5631;DHT22;2837;50.990;7.124;2024-03-29T09:19:51;13.30;99.90
5631;DHT22;2837;50.990;7.124;2024-03-29T09:22:19;13.30;99.90
5631;DHT22;2837;50.990;7.124;2024-03-29T09:24:45;13.30;99.90
5631;DHT22;2837;50.990;7.124;2024-03-29T09:27:10;13.40;99.90
5631;DHT22;2837;50.990;7.124;2024-03-29T09:29:36;13.40;99.90
5631;DHT22;2837;50.990;7.124;2024-03-29T09:32:01;13.50;99.90
5631;DHT22;2837;50.990;7.124;2024-03-29T09:34:28;13.50;99.90
5631;DHT22;2837;50.990;7.124;2024-03-29T09:36:53;13.60;99.90
5631;DHT22;2837;50.990;7.124;2024-03-29T09:39:19;13.60;99.90
5631;DHT22;2837;50.990;7.124;2024-03-29T09:41:47;13.60;99.90
5631;DHT22;2837;50.990;7.124;2024-03-29T09:44:13;14.40;99.90
5631;DHT22;2837;50.990;7.124;2024-03-29T09:46:39;13.70;99.90
5631;DHT22;2837;50.990;7.124;2024-03-29T09:49:07;13.70;99.90
5631;DHT22;2837;50.990;7.124;2024-03-29T09:51:33;13.80;99.90
5631;DHT22;2837;50.990;7.124;2024-03-29T09:53:59;15.60;99.90
5631;DHT22;2837;50.990;7.124;2024-03-29T09:56:26;15.70;99.90
5631;DHT22;2837;50.990;7.124;2024-03-29T09:58:52;13.80;99.90
5631;DHT22;2837;50.990;7.124;2024-03-29T10:01:18;13.90;99.90
5631;DHT22;2837;50.990;7.124;2024-03-29T10:03:49;13.80;99.90
5631;DHT22;2837;50.990;7.124;2024-03-29T10:06:15;13.90;99.90
5631;DHT22;2837;50.990;7.124;2024-03-29T10:08:43;14.00;99.90
5631;DHT22;2837;50.990;7.124;2024-03-29T10:11:08;14.00;99.90
5631;DHT22;2837;50.990;7.124;2024-03-29T10:13:35;14.00;99.90
5631;DHT22;2837;50.990;7.124;2024-03-29T10:16:00;14.00;99.90
5631;DHT22;2837;50.990;7.124;2024-03-29T10:18:28;14.00;99.90
5631;DHT22;2837;50.990;7.124;2024-03-29T10:21:03;14.00;99.90
5631;DHT22;2837;50.990;7.124;2024-03-29T10:23:29;14.10;99.90
5631;DHT22;2837;50.990;7.124;2024-03-29T10:25:55;14.10;99.90
5631;DHT22;2837;50.990;7.124;2024-03-29T10:28:22;14.10;99.90
5631;DHT22;2837;50.990;7.124;2024-03-29T10:30:48;14.20;99.90
5631;DHT22;2837;50.990;7.124;2024-03-29T10:33:18;14.20;99.90
5631;DHT22;2837;50.990;7.124;2024-03-29T10:35:44;14.30;99.90
5631;DHT22;2837;50.990;7.124;2024-03-29T10:38:10;14.30;99.90
5631;DHT22;2837;50.990;7.124;2024-03-29T10:40:40;14.30;99.90
5631;DHT22;2837;50.990;7.124;2024-03-29T10:43:10;14.30;99.90
5631;DHT22;2837;50.990;7.124;2024-03-29T10:45:41;14.30;99.90
5631;DHT22;2837;50.990;7.124;2024-03-29T10:48:09;14.40;99.90
5631;DHT22;2837;50.990;7.124;2024-03-29T10:50:39;14.40;99.90
5631;DHT22;2837;50.990;7.124;2024-03-29T10:53:06;14.40;99.90
5631;DHT22;2837;50.990;7.124;2024-03-29T10:55:36;14.50;99.90
5631;DHT22;2837;50.990;7.124;2024-03-29T10:58:06;14.50;99.90
5631;DHT22;2837;50.990;7.124;2024-03-29T11:00:39;14.50;99.90
5631;DHT22;2837;50.990;7.124;2024-03-29T11:06:02;14.50;99.90
5631;DHT22;2837;50.990;7.124;2024-03-29T11:08:32;14.40;99.90
5631;DHT22;2837;50.990;7.124;2024-03-29T11:11:00;14.40;99.90
5631;DHT22;2837;50.990;7.124;2024-03-29T11:16:10;14.40;99.90
5631;DHT22;2837;50.990;7.124;2024-03-29T11:18:36;14.40;99.90
5631;DHT22;2837;50.990;7.124;2024-03-29T11:21:03;14.40;99.90
5631;DHT22;2837;50.990;7.124;2024-03-29T11:23:31;14.50;99.90
5631;DHT22;2837;50.990;7.124;2024-03-29T11:25:58;14.50;99.90
5631;DHT22;2837;50.990;7.124;2024-03-29T11:28:33;18.10;99.90
5631;DHT22;2837;50.990;7.124;2024-03-29T11:31:04;14.70;99.90
5631;DHT22;2837;50.990;7.124;2024-03-29T11:33:32;14.60;99.90
5631;DHT22;2837;50.990;7.124;2024-03-29T11:38:45;14.60;99.90
5631;DHT22;2837;50.990;7.124;2024-03-29T11:41:16;14.60;99.90
5631;DHT22;2837;50.990;7.124;2024-03-29T11:43:42;14.60;99.90
5631;DHT22;2837;50.990;7.124;2024-03-29T11:46:13;17.00;99.90
5631;DHT22;2837;50.990;7.124;2024-03-29T11:48:39;14.70;99.90
5631;DHT22;2837;50.990;7.124;2024-03-29T11:51:07;14.70;99.90
5631;DHT22;2837;50.990;7.124;2024-03-29T11:53:36;16.00;99.90
5631;DHT22;2837;50.990;7.124;2024-03-29T11:56:02;16.70;99.90
5631;DHT22;2837;50.990;7.124;2024-03-29T11:58:29;14.60;99.90
5631;DHT22;2837;50.990;7.124;2024-03-29T12:00:56;14.70;99.90
5631;DHT22;2837;50.990;7.124;2024-03-29T12:03:28;14.90;99.90
5631;DHT22;2837;50.990;7.124;2024-03-29T12:05:55;15.00;99.90
5631;DHT22;2837;50.990;7.124;2024-03-29T12:08:25;17.10;99.90
5631;DHT22;2837;50.990;7.124;2024-03-29T12:10:52;14.70;99.90
5631;DHT22;2837;50.990;7.124;2024-03-29T12:13:17;17.80;99.90
5631;DHT22;2837;50.990;7.124;2024-03-29T12:15:43;14.60;99.90
5631;DHT22;2837;50.990;7.124;2024-03-29T12:18:10;14.60;99.90
5631;DHT22;2837;50.990;7.124;2024-03-29T12:20:37;14.40;99.90
5631;DHT22;2837;50.990;7.124;2024-03-29T12:23:04;14.50;99.90
5631;DHT22;2837;50.990;7.124;2024-03-29T12:25:31;14.50;99.90
5631;DHT22;2837;50.990;7.124;2024-03-29T12:27:58;17.40;99.90
5631;DHT22;2837;50.990;7.124;2024-03-29T12:30:23;14.40;99.90
5631;DHT22;2837;50.990;7.124;2024-03-29T12:33:03;16.50;99.90
5631;DHT22;2837;50.990;7.124;2024-03-29T12:35:29;14.40;99.90
5631;DHT22;2837;50.990;7.124;2024-03-29T12:37:59;14.40;99.90
5631;DHT22;2837;50.990;7.124;2024-03-29T12:40:26;17.70;99.90
5631;DHT22;2837;50.990;7.124;2024-03-29T12:42:52;14.40;99.90
5631;DHT22;2837;50.990;7.124;2024-03-29T12:45:18;14.50;99.90
5631;DHT22;2837;50.990;7.124;2024-03-29T12:47:48;14.50;99.90
5631;DHT22;2837;50.990;7.124;2024-03-29T12:50:41;14.50;99.90
5631;DHT22;2837;50.990;7.124;2024-03-29T12:53:08;14.40;99.90
5631;DHT22;2837;50.990;7.124;2024-03-29T12:55:34;14.40;99.90
5631;DHT22;2837;50.990;7.124;2024-03-29T12:58:02;14.60;99.90
5631;DHT22;2837;50.990;7.124;2024-03-29T13:00:32;14.40;99.90
5631;DHT22;2837;50.990;7.124;2024-03-29T13:02:58;14.70;99.90
5631;DHT22;2837;50.990;7.124;2024-03-29T13:05:24;14.40;99.90
5631;DHT22;2837;50.990;7.124;2024-03-29T13:07:49;14.40;99.90
5631;DHT22;2837;50.990;7.124;2024-03-29T13:10:15;14.40;99.90
5631;DHT22;2837;50.990;7.124;2024-03-29T13:12:45;14.40;99.90
5631;DHT22;2837;50.990;7.124;2024-03-29T13:15:25;15.70;99.90
5631;DHT22;2837;50.990;7.124;2024-03-29T13:17:53;14.40;99.90
5631;DHT22;2837;50.990;7.124;2024-03-29T13:20:19;14.40;99.90
5631;DHT22;2837;50.990;7.124;2024-03-29T13:22:46;14.40;99.90
5631;DHT22;2837;50.990;7.124;2024-03-29T13:25:13;14.40;99.90
5631;DHT22;2837;50.990;7.124;2024-03-29T13:27:43;15.00;99.90
5631;DHT22;2837;50.990;7.124;2024-03-29T13:30:11;14.40;99.90
5631;DHT22;2837;50.990;7.124;2024-03-29T13:32:38;14.50;99.90
5631;DHT22;2837;50.990;7.124;2024-03-29T13:35:05;14.50;99.90
5631;DHT22;2837;50.990;7.124;2024-03-29T13:37:34;14.50;99.90
5631;DHT22;2837;50.990;7.124;2024-03-29T13:40:00;14.60;99.90
5631;DHT22;2837;50.990;7.124;2024-03-29T13:42:26;14.60;99.90
5631;DHT22;2837;50.990;7.124;2024-03-29T13:44:52;14.50;99.90
5631;DHT22;2837;50.990;7.124;2024-03-29T13:47:18;14.60;99.90
5631;DHT22;2837;50.990;7.124;2024-03-29T13:49:44;14.50;99.90
5631;DHT22;2837;50.990;7.124;2024-03-29T13:52:09;14.50;99.90
5631;DHT22;2837;50.990;7.124;2024-03-29T13:54:35;16.90;99.90
5631;DHT22;2837;50.990;7.124;2024-03-29T13:57:02;15.30;99.90
5631;DHT22;2837;50.990;7.124;2024-03-29T13:59:29;14.50;99.90
5631;DHT22;2837;50.990;7.124;2024-03-29T14:01:54;14.50;99.90
5631;DHT22;2837;50.990;7.124;2024-03-29T14:04:20;16.30;99.90
5631;DHT22;2837;50.990;7.124;2024-03-29T14:06:45;14.60;99.90
5631;DHT22;2837;50.990;7.124;2024-03-29T14:09:11;16.80;99.90
5631;DHT22;2837;50.990;7.124;2024-03-29T14:11:37;14.70;99.90
5631;DHT22;2837;50.990;7.124;2024-03-29T14:14:03;14.70;99.90
5631;DHT22;2837;50.990;7.124;2024-03-29T14:16:30;14.70;99.90
5631;DHT22;2837;50.990;7.124;2024-03-29T14:18:56;14.70;99.90
5631;DHT22;2837;50.990;7.124;2024-03-29T14:21:21;14.70;99.90
5631;DHT22;2837;50.990;7.124;2024-03-29T14:23:47;14.60;99.90
5631;DHT22;2837;50.990;7.124;2024-03-29T14:26:12;14.70;99.90
5631;DHT22;2837;50.990;7.124;2024-03-29T14:28:38;14.70;99.90
5631;DHT22;2837;50.990;7.124;2024-03-29T14:31:03;14.70;99.90
5631;DHT22;2837;50.990;7.124;2024-03-29T14:33:29;14.70;99.90
5631;DHT22;2837;50.990;7.124;2024-03-29T14:35:54;17.80;99.90
5631;DHT22;2837;50.990;7.124;2024-03-29T14:38:20;17.40;99.90
5631;DHT22;2837;50.990;7.124;2024-03-29T14:40:46;14.80;99.90
5631;DHT22;2837;50.990;7.124;2024-03-29T14:43:12;14.80;99.90
5631;DHT22;2837;50.990;7.124;2024-03-29T14:45:40;14.70;99.90
5631;DHT22;2837;50.990;7.124;2024-03-29T14:48:06;14.70;99.90
5631;DHT22;2837;50.990;7.124;2024-03-29T14:50:31;14.80;99.90
5631;DHT22;2837;50.990;7.124;2024-03-29T14:52:57;14.70;99.90
5631;DHT22;2837;50.990;7.124;2024-03-29T14:55:22;14.70;99.90
5631;DHT22;2837;50.990;7.124;2024-03-29T14:57:48;14.70;99.90
5631;DHT22;2837;50.990;7.124;2024-03-29T15:00:15;15.60;99.90
5631;DHT22;2837;50.990;7.124;2024-03-29T15:02:41;14.80;99.90
5631;DHT22;2837;50.990;7.124;2024-03-29T15:05:08;14.80;99.90
5631;DHT22;2837;50.990;7.124;2024-03-29T15:07:36;14.80;99.90
5631;DHT22;2837;50.990;7.124;2024-03-29T15:10:02;14.80;99.90
5631;DHT22;2837;50.990;7.124;2024-03-29T15:12:38;14.80;99.90
5631;DHT22;2837;50.990;7.124;2024-03-29T15:15:04;14.80;99.90
5631;DHT22;2837;50.990;7.124;2024-03-29T15:17:30;14.90;99.90
5631;DHT22;2837;50.990;7.124;2024-03-29T15:19:56;14.90;99.90
5631;DHT22;2837;50.990;7.124;2024-03-29T15:22:21;14.90;99.90
5631;DHT22;2837;50.990;7.124;2024-03-29T15:24:47;14.90;99.90
5631;DHT22;2837;50.990;7.124;2024-03-29T15:27:12;14.90;99.90
5631;DHT22;2837;50.990;7.124;2024-03-29T15:29:56;17.60;99.90
5631;DHT22;2837;50.990;7.124;2024-03-29T15:32:23;14.80;99.90
5631;DHT22;2837;50.990;7.124;2024-03-29T15:34:51;14.80;99.90
5631;DHT22;2837;50.990;7.124;2024-03-29T15:37:17;14.80;99.90
5631;DHT22;2837;50.990;7.124;2024-03-29T15:39:42;14.70;99.90
5631;DHT22;2837;50.990;7.124;2024-03-29T15:42:08;14.70;99.90
5631;DHT22;2837;50.990;7.124;2024-03-29T15:44:34;14.70;99.90
5631;DHT22;2837;50.990;7.124;2024-03-29T15:47:00;14.70;99.90
5631;DHT22;2837;50.990;7.124;2024-03-29T15:49:26;14.70;99.90
5631;DHT22;2837;50.990;7.124;2024-03-29T15:51:51;14.60;99.90
5631;DHT22;2837;50.990;7.124;2024-03-29T15:54:17;15.00;99.90
5631;DHT22;2837;50.990;7.124;2024-03-29T15:56:45;14.60;99.90
5631;DHT22;2837;50.990;7.124;2024-03-29T15:59:10;14.70;99.90
5631;DHT22;2837;50.990;7.124;2024-03-29T16:01:36;14.70;99.90
5631;DHT22;2837;50.990;7.124;2024-03-29T16:04:02;14.60;99.90
5631;DHT22;2837;50.990;7.124;2024-03-29T16:06:27;16.80;99.90
5631;DHT22;2837;50.990;7.124;2024-03-29T16:08:53;14.70;99.90